Time;durP1;ratioP1;P1;durP2;ratioP2;P2;SDS_P1;SDS_P2;PMS_P1;PMS_P2;Temp;Humidity;BMP_temperature;BMP_pressure;BME280_temperature;BME280_humidity;BME280_pressure;Samples;Min_cycle;Max_cycle;Signal;HPM_P1;HPM_P2
2021/04/15 00:00:50;;;;;;;14.75;4.03;;;;;;;0.32;92.88;99220.30;2218444;80;21277;-73
2021/04/15 00:03:52;;;;;;;11.48;3.83;;;;;;;0.33;92.49;99207.83;2218528;80;21578;-74
2021/04/15 00:06:55;;;;;;;13.70;3.95;;;;;;;0.36;92.86;99207.36;2218318;80;21158;-73
2021/04/15 00:09:56;;;;;;;10.58;3.37;;;;;;;0.32;92.56;99200.95;2190060;80;21123;-74
2021/04/15 00:12:58;;;;;;;13.65;3.60;;;;;;;0.31;92.57;99202.27;2218496;80;21154;-73
2021/04/15 00:16:01;;;;;;;10.18;3.35;;;;;;;0.30;92.78;99207.87;2218692;80;21308;-73
2021/04/15 00:19:03;;;;;;;15.20;3.75;;;;;;;0.29;92.88;99194.99;2218327;80;21265;-73
2021/04/15 00:22:05;;;;;;;10.03;3.47;;;;;;;0.31;92.68;99194.52;2218451;80;21214;-73
2021/04/15 00:25:07;;;;;;;11.73;3.27;;;;;;;0.31;92.50;99190.66;2218475;80;21213;-73
2021/04/15 00:28:09;;;;;;;10.85;3.40;;;;;;;0.30;92.59;99194.97;2189986;80;21142;-74
2021/04/15 00:31:11;;;;;;;11.60;3.27;;;;;;;0.31;92.56;99188.07;2218492;80;21618;-73
2021/04/15 00:34:13;;;;;;;11.70;3.30;;;;;;;0.31;92.50;99185.05;2218389;80;21736;-75
2021/04/15 00:37:15;;;;;;;8.65;3.10;;;;;;;0.28;92.76;99183.80;2218302;80;21292;-73
2021/04/15 00:40:17;;;;;;;8.93;2.80;;;;;;;0.30;92.34;99181.20;2218493;80;21186;-73
2021/04/15 00:43:19;;;;;;;8.23;2.95;;;;;;;0.31;92.37;99177.30;2218709;80;21316;-73
2021/04/15 00:46:22;;;;;;;10.15;3.22;;;;;;;0.32;92.39;99191.92;2218558;80;21705;-73
2021/04/15 00:49:24;;;;;;;9.33;2.80;;;;;;;0.31;92.38;99179.04;2218338;80;21289;-73
2021/04/15 00:52:26;;;;;;;7.50;2.83;;;;;;;0.31;92.38;99181.17;2218675;80;21281;-73
2021/04/15 00:55:28;;;;;;;8.23;2.98;;;;;;;0.32;92.29;99175.59;2218325;80;21277;-72
2021/04/15 00:58:30;;;;;;;8.13;2.70;;;;;;;0.31;92.29;99176.02;2218331;80;21269;-73
2021/04/15 01:01:33;;;;;;;6.30;2.33;;;;;;;0.31;92.49;99170.01;2218158;80;21757;-73
2021/04/15 01:04:35;;;;;;;6.28;2.33;;;;;;;0.30;92.39;99172.16;2218272;80;21701;-72
2021/04/15 01:07:37;;;;;;;5.72;2.62;;;;;;;0.29;92.32;99170.48;2218319;80;21130;-73
2021/04/15 01:10:39;;;;;;;8.00;2.92;;;;;;;0.27;92.48;99170.92;2218459;80;21527;-73
2021/04/15 01:13:46;;;;;;;9.50;2.80;;;;;;;0.27;92.37;99167.05;2218301;80;21781;-73
2021/04/15 01:16:45;;;;;;;7.40;2.67;;;;;;;0.30;92.26;99163.13;2218014;80;21515;-73
2021/04/15 01:19:47;;;;;;;7.25;2.60;;;;;;;0.26;92.83;99173.08;2218320;80;21300;-73
2021/04/15 01:22:49;;;;;;;8.33;2.37;;;;;;;0.25;92.78;99154.17;2218329;80;21292;-73
2021/04/15 01:25:51;;;;;;;8.35;2.47;;;;;;;0.27;92.49;99160.16;2218324;80;21272;-73
2021/04/15 01:28:53;;;;;;;6.97;2.30;;;;;;;0.28;92.43;99155.86;2218359;80;21142;-73
2021/04/15 01:31:56;;;;;;;5.92;2.25;;;;;;;0.25;92.68;99147.72;2218173;80;21626;-73
2021/04/15 01:34:58;;;;;;;6.50;2.40;;;;;;;0.24;92.53;99143.88;2190018;80;21292;-72
2021/04/15 01:38:00;;;;;;;5.45;2.47;;;;;;;0.24;92.50;99147.75;2218245;80;21312;-73
2021/04/15 01:41:02;;;;;;;4.40;2.22;;;;;;;0.25;92.45;99161.91;2218320;80;21127;-74
2021/04/15 01:44:04;;;;;;;8.58;2.75;;;;;;;0.26;92.33;99144.70;2218325;80;21134;-74
2021/04/15 01:47:06;;;;;;;5.50;2.12;;;;;;;0.25;92.55;99150.30;2218382;80;21123;-73
2021/04/15 01:50:08;;;;;;;7.17;2.62;;;;;;;0.24;92.70;99138.27;2218319;80;21299;-73
2021/04/15 01:53:10;;;;;;;6.30;2.47;;;;;;;0.23;92.57;99135.30;2218321;80;21281;-74
2021/04/15 01:56:12;;;;;;;8.35;2.62;;;;;;;0.25;92.40;99134.82;2218301;80;21285;-73
2021/04/15 01:59:14;;;;;;;5.33;2.47;;;;;;;0.24;92.49;99137.42;2218317;80;21280;-73
2021/04/15 02:02:16;;;;;;;6.72;2.55;;;;;;;0.23;92.60;99135.71;2218260;80;21280;-73
2021/04/15 02:05:18;;;;;;;6.40;2.60;;;;;;;0.22;92.74;99127.13;2218417;80;21694;-72
2021/04/15 02:08:20;;;;;;;7.53;2.35;;;;;;;0.25;92.54;99132.24;2218269;80;21264;-73
2021/04/15 02:11:22;;;;;;;7.42;2.58;;;;;;;0.26;92.62;99120.18;2218291;80;21276;-73
2021/04/15 02:14:24;;;;;;;5.37;2.12;;;;;;;0.25;92.42;99125.79;2218303;80;21586;-73
2021/04/15 02:17:26;;;;;;;7.55;2.77;;;;;;;0.25;92.60;99127.53;2218372;80;21594;-73
2021/04/15 02:20:28;;;;;;;9.33;3.00;;;;;;;0.23;92.64;99121.10;2218407;80;21578;-73
2021/04/15 02:23:30;;;;;;;8.75;2.77;;;;;;;0.24;92.34;99123.23;2218285;80;21304;-73
2021/04/15 02:26:32;;;;;;;7.03;2.95;;;;;;;0.24;92.63;99124.52;2189851;80;21752;-73
2021/04/15 02:29:34;;;;;;;7.05;2.80;;;;;;;0.25;92.70;99123.66;2218510;80;21166;-72
2021/04/15 02:32:36;;;;;;;7.85;2.95;;;;;;;0.23;92.67;99109.49;2218304;80;21265;-73
2021/04/15 02:35:38;;;;;;;8.38;3.20;;;;;;;0.25;92.44;99115.92;2218382;80;21697;-73
2021/04/15 02:38:40;;;;;;;11.18;3.00;;;;;;;0.24;92.56;99114.20;2189684;80;21268;-72
2021/04/15 02:41:42;;;;;;;9.33;3.25;;;;;;;0.24;92.71;99115.05;2218237;80;21308;-72
2021/04/15 02:44:47;;;;;;;9.18;3.15;;;;;;;0.21;92.87;99109.94;2218248;80;21154;-73
2021/04/15 02:47:49;;;;;;;8.68;2.98;;;;;;;0.20;92.94;99109.51;2218073;80;21300;-75
2021/04/15 02:50:51;;;;;;;8.08;3.15;;;;;;;0.20;92.95;99108.67;2218262;80;21309;-74
2021/04/15 02:53:54;;;;;;;8.95;3.27;;;;;;;0.21;92.92;99103.93;2218271;80;21760;-73
2021/04/15 02:56:56;;;;;;;;;;;;;;;0.17;93.08;99113.42;2220950;80;21182;-75
2021/04/15 02:59:58;;;;;;;9.10;3.17;;;;;;;0.16;93.13;99102.72;2218264;80;20510;-74
2021/04/15 03:03:00;;;;;;;9.28;3.50;;;;;;;0.15;93.07;99096.69;2218244;80;21169;-72
2021/04/15 03:06:03;;;;;;;11.22;3.85;;;;;;;0.17;92.78;99092.79;2218281;80;21293;-76
2021/04/15 03:09:05;;;;;;;9.53;3.47;;;;;;;0.19;92.87;99102.67;2218121;80;21115;-72
2021/04/15 03:12:07;;;;;;;12.63;3.92;;;;;;;0.21;92.89;99102.64;2218387;80;21145;-74
2021/04/15 03:15:09;;;;;;;13.10;3.75;;;;;;;0.20;92.93;99103.06;2218239;80;21269;-76
2021/04/15 03:18:11;;;;;;;10.93;3.58;;;;;;;0.18;93.18;99103.98;2218240;80;21617;-76
2021/04/15 03:21:13;;;;;;;10.25;3.55;;;;;;;0.17;93.14;99105.69;2218267;80;21162;-73
2021/04/15 03:24:15;;;;;;;12.10;3.37;;;;;;;0.19;93.22;99106.95;2218211;80;21280;-73
2021/04/15 03:27:17;;;;;;;12.45;3.65;;;;;;;0.16;93.32;99097.56;2218425;80;21268;-74
2021/04/15 03:30:19;;;;;;;9.95;3.75;;;;;;;0.15;93.29;99094.55;2218542;80;21721;-73
2021/04/15 03:33:21;;;;;;;12.60;3.98;;;;;;;0.12;93.67;99098.02;2218547;80;21598;-74
2021/04/15 03:36:23;;;;;;;14.15;4.55;;;;;;;0.13;93.30;99101.02;2218528;80;21599;-74
2021/04/15 03:39:25;;;;;;;11.00;3.92;;;;;;;0.12;93.60;99101.89;2218398;80;21725;-73
2021/04/15 03:42:27;;;;;;;11.93;4.00;;;;;;;0.12;93.66;99097.18;2218402;80;21162;-73
2021/04/15 03:45:29;;;;;;;11.12;3.72;;;;;;;0.11;93.66;99098.05;2218424;80;21138;-73
2021/04/15 03:48:31;;;;;;;13.38;3.98;;;;;;;0.11;93.82;99101.91;2218318;80;21312;-73
2021/04/15 03:51:33;;;;;;;12.45;3.72;;;;;;;0.12;93.68;99102.34;2218499;80;21127;-72
2021/04/15 03:54:35;;;;;;;11.85;4.17;;;;;;;0.10;94.02;99101.49;2218498;80;21131;-73
2021/04/15 03:57:37;;;;;;;12.90;4.05;;;;;;;0.11;93.97;99103.20;2218378;80;21142;-73
2021/04/15 04:00:39;;;;;;;12.50;4.12;;;;;;;0.11;94.07;99102.76;2218385;80;21273;-73
2021/04/15 04:03:41;;;;;;;11.88;3.83;;;;;;;0.12;93.76;99100.60;2218413;80;21309;-72
2021/04/15 04:06:43;;;;;;;12.03;3.87;;;;;;;0.12;93.97;99112.66;2218655;80;21134;-72
2021/04/15 04:09:45;;;;;;;11.57;4.22;;;;;;;0.13;93.85;99111.34;2218510;80;21555;-72
2021/04/15 04:12:47;;;;;;;14.00;4.35;;;;;;;0.11;94.02;99098.89;2218689;80;21146;-73
2021/04/15 04:15:49;;;;;;;12.75;4.30;;;;;;;0.10;94.06;99102.36;2218692;80;21178;-72
2021/04/15 04:18:51;;;;;;;14.80;4.30;;;;;;;0.13;93.84;99107.48;2218374;80;21154;-72
2021/04/15 04:21:53;;;;;;;12.50;4.30;;;;;;;0.15;93.89;99113.91;2218348;80;21273;-72
2021/04/15 04:24:55;;;;;;;13.25;4.40;;;;;;;0.13;93.96;99101.02;2218423;80;21142;-73
2021/04/15 04:27:57;;;;;;;12.73;3.90;;;;;;;0.13;94.10;99099.73;2218469;80;21565;-72
2021/04/15 04:30:59;;;;;;;12.00;4.03;;;;;;;0.14;94.00;99106.61;2218379;80;21277;-72
2021/04/15 04:34:01;;;;;;;12.65;4.65;;;;;;;0.15;93.96;99110.88;2218729;80;21329;-72
2021/04/15 04:37:03;;;;;;;12.18;4.20;;;;;;;0.16;93.90;99102.27;2218349;80;21293;-72
2021/04/15 04:40:05;;;;;;;13.28;4.17;;;;;;;0.21;93.77;99109.94;2218402;80;21170;-73
2021/04/15 04:43:07;;;;;;;11.30;3.85;;;;;;;0.24;93.40;99105.17;2218381;80;21280;-72
2021/04/15 04:46:09;;;;;;;9.48;3.70;;;;;;;0.23;93.57;99104.75;2218383;80;21103;-72
2021/04/15 04:49:11;;;;;;;11.43;3.95;;;;;;;0.24;93.56;99104.73;2218430;80;21149;-72
2021/04/15 04:52:13;;;;;;;13.58;4.22;;;;;;;0.24;93.56;99108.59;2218349;80;21700;-72
2021/04/15 04:55:14;;;;;;;11.50;3.83;;;;;;;0.26;93.54;99105.57;2218337;80;21284;-73
2021/04/15 04:58:16;;;;;;;10.88;3.80;;;;;;;0.28;93.52;99110.27;2218402;80;21130;-73
2021/04/15 05:01:18;;;;;;;10.08;3.70;;;;;;;0.31;93.31;99111.50;2218297;80;21296;-73
2021/04/15 05:04:20;;;;;;;11.45;3.90;;;;;;;0.34;93.27;99110.61;2218339;80;21319;-74
2021/04/15 05:07:22;;;;;;;13.35;3.98;;;;;;;0.36;93.18;99109.30;2218320;80;21265;-77
2021/04/15 05:10:24;;;;;;;11.38;3.42;;;;;;;0.40;92.94;99106.64;2218386;80;21736;-76
2021/04/15 05:13:26;;;;;;;10.75;3.75;;;;;;;0.44;92.78;99103.59;2218333;80;21311;-75
2021/04/15 05:16:28;;;;;;;10.68;3.50;;;;;;;0.50;92.45;99099.19;2218680;80;21292;-73
2021/04/15 05:19:30;;;;;;;8.25;3.42;;;;;;;0.53;92.34;99096.98;2218682;80;21285;-73
2021/04/15 05:22:32;;;;;;;9.35;3.40;;;;;;;0.55;92.17;99107.27;2218317;80;21296;-72
2021/04/15 05:25:34;;;;;;;13.75;3.92;;;;;;;0.57;92.14;99105.09;2218360;80;21269;-76
2021/04/15 05:28:36;;;;;;;9.78;3.35;;;;;;;0.57;92.12;99108.96;2218679;80;21154;-76
2021/04/15 05:31:38;;;;;;;9.65;3.40;;;;;;;0.56;92.03;99111.16;2218359;80;21581;-74
2021/04/15 05:34:40;;;;;;;10.20;3.45;;;;;;;0.57;91.99;99109.41;2218342;80;21284;-73
2021/04/15 05:37:42;;;;;;;9.90;3.50;;;;;;;0.58;92.06;99102.93;2218266;80;21272;-73
2021/04/15 05:40:44;;;;;;;9.58;3.60;;;;;;;0.61;91.88;99102.88;2185085;81;21307;-72
2021/04/15 05:43:46;;;;;;;9.85;3.60;;;;;;;0.65;91.70;99093.37;2193499;81;21134;-75
2021/04/15 05:46:48;;;;;;;9.10;3.42;;;;;;;0.67;91.53;99105.35;2193693;81;21284;-73
2021/04/15 05:49:50;;;;;;;7.00;3.22;;;;;;;0.69;91.45;99101.03;2193493;81;21295;-73
2021/04/15 05:52:52;;;;;;;7.97;3.10;;;;;;;0.72;91.33;99099.27;2193520;81;21174;-72
2021/04/15 05:55:54;;;;;;;8.53;3.08;;;;;;;0.73;91.29;99099.23;2193499;81;21280;-73
2021/04/15 05:58:56;;;;;;;10.53;3.55;;;;;;;0.76;91.06;99103.50;2193475;81;21115;-73
2021/04/15 06:01:58;;;;;;;10.32;3.70;;;;;;;0.76;91.01;99104.80;2193520;81;21141;-71
2021/04/15 06:05:00;;;;;;;11.73;4.10;;;;;;;0.79;90.97;99095.28;2193504;81;21139;-72
2021/04/15 06:08:02;;;;;;;11.93;4.25;;;;;;;0.80;90.73;99092.25;2193425;81;21174;-72
2021/04/15 06:11:04;;;;;;;12.58;4.30;;;;;;;0.81;90.71;99092.67;2193461;81;21609;-72
2021/04/15 06:14:07;;;;;;;12.37;4.25;;;;;;;0.85;90.49;99095.17;2193694;81;21276;-72
2021/04/15 06:17:09;;;;;;;12.37;4.53;;;;;;;0.87;90.45;99092.55;2193435;81;21114;-72
2021/04/15 06:20:11;;;;;;;14.63;4.62;;;;;;;0.91;90.35;99089.05;2193585;81;21915;-72
2021/04/15 06:23:13;;;;;;;14.35;4.65;;;;;;;0.95;90.20;99089.83;2193522;81;21264;-71
2021/04/15 06:26:15;;;;;;;14.93;4.58;;;;;;;0.95;90.13;99080.37;2194040;81;21284;-72
2021/04/15 06:29:17;;;;;;;15.15;4.92;;;;;;;0.99;89.95;99085.89;2193480;81;21590;-72
2021/04/15 06:32:20;;;;;;;14.07;4.30;;;;;;;0.95;89.69;99085.95;2193363;81;21639;-73
2021/04/15 06:35:22;;;;;;;14.83;4.97;;;;;;;0.98;89.71;99082.05;2193421;81;21180;-72
2021/04/15 06:38:24;;;;;;;17.55;5.53;;;;;;;0.98;89.67;99084.63;2193722;81;21296;-72
2021/04/15 06:41:26;;;;;;;11.90;4.75;;;;;;;0.99;89.75;99075.56;2207014;80;21292;-71
2021/04/15 06:44:28;;;;;;;14.40;4.60;;;;;;;0.99;89.75;99080.73;2219587;80;21157;-71
2021/04/15 06:47:30;;;;;;;16.10;5.10;;;;;;;1.00;89.56;99080.28;2219592;80;21284;-71
2021/04/15 06:50:33;;;;;;;13.88;5.03;;;;;;;1.00;89.53;99072.08;2162682;82;21300;-72
2021/04/15 06:53:35;;;;;;;12.53;4.55;;;;;;;0.99;89.51;99075.98;2218851;80;21760;-71
2021/04/15 06:56:37;;;;;;;14.90;5.10;;;;;;;0.96;89.57;99085.08;2218936;80;21283;-71
2021/04/15 06:59:39;;;;;;;14.03;4.80;;;;;;;0.99;89.65;99074.69;2219405;80;21276;-73
2021/04/15 07:02:41;;;;;;;14.30;4.97;;;;;;;0.99;89.48;99082.02;2219207;80;21178;-72
2021/04/15 07:05:44;;;;;;;12.43;4.65;;;;;;;1.03;89.49;99081.51;2219243;80;21276;-74
2021/04/15 07:08:47;;;;;;;15.35;4.75;;;;;;;1.08;89.53;99081.42;2219260;80;21269;-72
2021/04/15 07:11:49;;;;;;;15.05;4.80;;;;;;;1.11;89.24;99073.19;2219425;80;21266;-71
2021/04/15 07:14:51;;;;;;;13.40;4.65;;;;;;;1.11;89.25;99077.06;2219152;80;21299;-72
2021/04/15 07:17:53;;;;;;;14.25;4.78;;;;;;;1.13;89.09;99078.33;2219340;80;21764;-72
2021/04/15 07:20:55;;;;;;;16.15;4.87;;;;;;;1.14;89.07;99087.34;2219123;80;21280;-73
2021/04/15 07:23:57;;;;;;;15.10;4.83;;;;;;;1.22;89.14;99083.30;2219109;80;21301;-72
2021/04/15 07:26:59;;;;;;;12.75;4.65;;;;;;;1.23;88.68;99086.77;2219441;80;21280;-72
2021/04/15 07:30:02;;;;;;;15.90;4.95;;;;;;;1.23;88.83;99090.19;2219093;80;21296;-72
2021/04/15 07:33:05;;;;;;;12.80;4.60;;;;;;;1.29;88.69;99082.76;2192446;80;21621;-72
2021/04/15 07:36:07;;;;;;;13.22;4.50;;;;;;;1.28;88.69;99087.51;2219219;80;21131;-72
2021/04/15 07:39:09;;;;;;;13.88;4.47;;;;;;;1.27;88.58;99088.41;2219178;80;21268;-72
2021/04/15 07:42:11;;;;;;;14.85;5.10;;;;;;;1.29;88.51;99085.34;2219045;80;21316;-71
2021/04/15 07:45:14;;;;;;;14.07;4.70;;;;;;;1.28;88.42;99081.05;2219004;80;21265;-71
2021/04/15 07:48:16;;;;;;;13.28;4.30;;;;;;;1.33;88.64;99075.36;2219190;80;21296;-71
2021/04/15 07:51:19;;;;;;;13.38;4.72;;;;;;;1.37;88.51;99080.89;2219359;80;21701;-71
2021/04/15 07:54:21;;;;;;;13.65;4.58;;;;;;;1.41;88.25;99082.95;2219137;80;21724;-71
2021/04/15 07:57:23;;;;;;;14.28;4.33;;;;;;;1.48;88.31;99080.23;2219119;80;21725;-70
2021/04/15 08:00:25;;;;;;;12.20;4.45;;;;;;;1.55;87.77;99086.12;2219097;80;21272;-71
2021/04/15 08:03:27;;;;;;;13.08;4.53;;;;;;;1.63;87.44;99085.53;2219090;80;21595;-71
2021/04/15 08:06:30;;;;;;;13.72;4.50;;;;;;;1.66;87.42;99081.58;2219075;80;21717;-71
2021/04/15 08:09:32;;;;;;;14.13;4.50;;;;;;;1.65;87.20;99085.08;2219206;80;21273;-71
2021/04/15 08:12:34;;;;;;;15.40;4.80;;;;;;;1.69;87.40;99084.55;2219052;80;21712;-71
2021/04/15 08:15:37;;;;;;;10.98;4.05;;;;;;;1.71;87.07;99088.81;2218977;80;21154;-71
2021/04/15 08:18:41;;;;;;;15.58;4.67;;;;;;;1.79;87.05;99092.98;2219082;80;21709;-72
2021/04/15 08:21:43;;;;;;;14.15;4.33;;;;;;;1.84;86.63;99088.12;2219154;80;21284;-71
2021/04/15 08:24:45;;;;;;;14.60;4.78;;;;;;;1.91;87.15;99079.77;2219160;80;21138;-72
2021/04/15 08:27:47;;;;;;;12.73;4.10;;;;;;;2.04;86.47;99080.34;2219021;80;21276;-72
2021/04/15 08:30:49;;;;;;;14.60;4.50;;;;;;;2.02;85.64;99082.97;2219057;80;21284;-72
2021/04/15 08:33:51;;;;;;;13.15;4.40;;;;;;;2.07;86.06;99082.89;2219414;80;21300;-72
2021/04/15 08:36:53;;;;;;;13.40;4.47;;;;;;;2.08;86.03;99086.73;2219032;80;21264;-72
2021/04/15 08:39:55;;;;;;;14.25;4.20;;;;;;;2.14;86.41;99083.59;2219145;80;21702;-72
2021/04/15 08:42:57;;;;;;;14.93;4.60;;;;;;;2.19;85.53;99096.84;2219013;80;21284;-72
2021/04/15 08:46:00;;;;;;;13.00;4.30;;;;;;;2.21;85.67;99079.97;2219036;80;21174;-73
2021/04/15 08:49:02;;;;;;;12.88;4.50;;;;;;;2.21;85.37;99087.31;2219217;80;21299;-73
2021/04/15 08:52:04;;;;;;;13.93;4.40;;;;;;;2.15;85.08;99092.61;2219425;80;21276;-73
2021/04/15 08:55:06;;;;;;;14.65;4.70;;;;;;;2.17;85.45;99086.10;2219077;80;21269;-73
2021/04/15 08:58:09;;;;;;;14.63;4.50;;;;;;;2.17;86.02;99083.52;2219053;80;21190;-73
2021/04/15 09:01:11;;;;;;;13.28;4.58;;;;;;;2.22;86.08;99088.16;2219423;80;21671;-73
2021/04/15 09:04:13;;;;;;;13.83;4.40;;;;;;;2.17;85.07;99081.80;2192389;80;21756;-73
2021/04/15 09:07:15;;;;;;;14.95;4.60;;;;;;;2.28;85.58;99082.83;2219012;80;21249;-73
2021/04/15 09:10:18;;;;;;;13.93;4.45;;;;;;;2.32;85.60;99079.28;2219062;80;21289;-74
2021/04/15 09:13:20;;;;;;;15.85;4.90;;;;;;;2.35;85.04;99086.14;2219046;80;21285;-74
2021/04/15 09:16:23;;;;;;;16.55;4.90;;;;;;;2.35;85.90;99083.55;2218997;80;21301;-74
2021/04/15 09:19:25;;;;;;;12.33;4.55;;;;;;;2.42;84.58;99083.81;2218988;80;21721;-74
2021/04/15 09:22:27;;;;;;;14.63;4.62;;;;;;;;;;2219329;80;21760;-74
2021/04/15 09:25:29;;;;;;;12.93;4.45;;;;;;;2.47;85.13;99081.11;2219015;80;21272;-74
2021/04/15 09:28:31;;;;;;;14.40;4.90;;;;;;;2.50;85.74;99077.14;2192361;80;21280;-75
2021/04/15 09:31:33;;;;;;;15.08;4.90;;;;;;;2.39;84.70;99086.02;2219012;80;21272;-74
2021/04/15 09:34:35;;;;;;;12.43;4.55;;;;;;;2.39;85.56;99084.73;2219117;80;21276;-74
2021/04/15 09:37:37;;;;;;;13.85;4.80;;;;;;;2.45;85.36;99086.32;2219082;80;21257;-74
2021/04/15 09:40:39;;;;;;;14.35;4.53;;;;;;;2.52;86.16;99084.45;2219012;80;21736;-74
2021/04/15 09:43:41;;;;;;;16.00;5.20;;;;;;;2.54;85.66;99085.25;2218944;80;21725;-74
2021/04/15 09:46:43;;;;;;;13.25;4.80;;;;;;;2.50;85.66;99078.02;2219342;80;21272;-73
2021/04/15 09:49:45;;;;;;;15.78;5.37;;;;;;;2.50;85.11;99082.32;2192432;80;21590;-73
2021/04/15 09:52:47;;;;;;;15.75;4.97;;;;;;;2.48;85.80;99073.75;2218986;80;21301;-74
2021/04/15 09:55:49;;;;;;;15.13;5.33;;;;;;;2.44;85.53;99075.55;2218979;80;21280;-74
2021/04/15 09:58:52;;;;;;;16.37;5.62;;;;;;;2.51;86.24;99080.98;2219003;80;21721;-74
2021/04/15 10:01:53;;;;;;;14.07;4.97;;;;;;;2.63;86.58;99081.16;2219001;80;21268;-73
2021/04/15 10:04:55;;;;;;;15.15;5.25;;;;;;;2.69;85.54;99074.98;2218981;80;21292;-73
2021/04/15 10:07:57;;;;;;;17.23;5.55;;;;;;;2.81;86.38;99081.13;2218995;80;21261;-73
2021/04/15 10:10:59;;;;;;;16.25;5.05;;;;;;;2.88;84.59;99074.06;2218958;80;21288;-75
2021/04/15 10:14:02;;;;;;;15.68;5.05;;;;;;;2.88;85.20;99077.49;2219022;80;21746;-73
2021/04/15 10:17:04;;;;;;;16.40;5.33;;;;;;;2.97;85.77;99063.44;2218953;80;21146;-74
2021/04/15 10:20:06;;;;;;;17.45;5.37;;;;;;;3.08;84.64;99067.06;2218993;80;21716;-74
2021/04/15 10:23:08;;;;;;;17.87;6.15;;;;;;;3.10;85.32;99076.50;2219182;80;21736;-73
2021/04/15 10:26:10;;;;;;;15.32;5.12;;;;;;;3.01;85.40;99069.41;2218956;80;21154;-73
2021/04/15 10:29:13;;;;;;;15.75;5.62;;;;;;;3.09;84.70;99067.02;2218976;80;21138;-73
2021/04/15 10:32:15;;;;;;;15.58;5.55;;;;;;;3.29;86.76;99067.78;2219100;80;21134;-74
2021/04/15 10:35:17;;;;;;;15.20;5.28;;;;;;;3.37;83.72;99064.13;2219148;80;21134;-73
2021/04/15 10:38:19;;;;;;;16.65;5.10;;;;;;;3.35;85.33;99067.19;2219141;80;21154;-74
2021/04/15 10:41:21;;;;;;;17.73;5.83;;;;;;;3.37;84.37;99060.23;2192589;80;21138;-73
2021/04/15 10:44:23;;;;;;;16.48;5.78;;;;;;;3.27;85.50;99057.88;2218500;80;21179;-73
2021/04/15 10:47:27;;;;;;;14.43;5.03;;;;;;;3.38;85.44;99063.23;2218587;80;21142;-73
2021/04/15 10:50:30;;;;;;;17.77;5.92;;;;;;;3.32;84.18;99059.07;2218445;80;21578;-73
2021/04/15 10:53:32;;;;;;;17.87;6.10;;;;;;;3.33;84.83;99065.09;2218473;80;21158;-73
2021/04/15 10:56:34;;;;;;;19.15;6.30;;;;;;;3.23;84.98;99059.30;2218681;80;21732;-73
2021/04/15 10:59:37;;;;;;;17.55;5.60;;;;;;;3.28;84.89;99060.88;2218736;80;21174;-73
2021/04/15 11:02:39;;;;;;;18.15;6.37;;;;;;;3.25;83.86;99062.27;2218598;80;21162;-73
2021/04/15 11:05:41;;;;;;;17.67;5.87;;;;;;;3.22;85.30;99058.47;2218825;80;21285;-73
2021/04/15 11:08:43;;;;;;;18.05;6.45;;;;;;;3.25;83.95;99068.75;2218549;80;21297;-73
2021/04/15 11:11:45;;;;;;;18.50;6.15;;;;;;;3.27;85.62;99060.47;2218608;80;21126;-73
2021/04/15 11:14:47;;;;;;;18.48;5.53;;;;;;;3.25;84.72;99060.13;2218983;80;21283;-73
2021/04/15 11:17:49;;;;;;;18.35;5.92;;;;;;;3.22;83.79;99069.27;2218691;80;21130;-73
2021/04/15 11:20:52;;;;;;;21.15;7.00;;;;;;;3.18;84.64;99070.27;2218344;80;21166;-73
2021/04/15 11:23:54;;;;;;;19.32;6.35;;;;;;;3.25;85.91;99065.32;2218453;80;21166;-73
2021/04/15 11:26:56;;;;;;;18.50;6.40;;;;;;;3.39;85.91;99063.62;2218798;80;21134;-73
2021/04/15 11:29:58;;;;;;;17.00;6.00;;;;;;;3.51;85.51;99063.29;2218951;80;21135;-73
2021/04/15 11:33:00;;;;;;;17.15;5.97;;;;;;;3.55;85.04;99067.92;2189907;80;21154;-73
2021/04/15 11:36:02;;;;;;;18.05;6.15;;;;;;;3.61;84.36;99069.07;2218452;80;21582;-73
2021/04/15 11:39:06;;;;;;;;;;;;;;;3.58;85.06;99060.08;2220982;80;21264;-73
2021/04/15 11:42:08;;;;;;;17.67;6.03;;;;;;;3.66;84.73;99063.28;2218404;80;20159;-73
2021/04/15 11:45:11;;;;;;;17.17;5.55;;;;;;;3.63;84.71;99062.95;2218664;80;21162;-73
2021/04/15 11:48:13;;;;;;;18.00;5.92;;;;;;;3.61;84.17;99060.83;2189921;80;21296;-73
2021/04/15 11:51:15;;;;;;;19.67;6.90;;;;;;;3.69;84.96;99068.38;2218774;80;21146;-73
2021/04/15 11:54:17;;;;;;;18.73;6.47;;;;;;;3.74;85.14;99060.03;2218799;80;21284;-73
2021/04/15 11:57:19;;;;;;;17.85;6.28;;;;;;;3.77;84.03;99061.23;2189774;80;21253;-73
2021/04/15 12:00:21;;;;;;;17.00;5.90;;;;;;;3.70;84.21;99067.49;2218571;80;21170;-73
2021/04/15 12:03:24;;;;;;;15.93;5.20;;;;;;;3.72;83.63;99063.55;2218375;80;21194;-73
2021/04/15 12:06:26;;;;;;;17.05;5.67;;;;;;;3.67;83.08;99063.70;2218583;80;21760;-73
2021/04/15 12:09:28;;;;;;;18.57;5.80;;;;;;;3.63;84.67;99062.08;2218387;80;21138;-73
2021/04/15 12:12:30;;;;;;;16.40;5.60;;;;;;;3.61;84.08;99065.18;2218407;80;21297;-73
2021/04/15 12:15:32;;;;;;;18.80;5.50;;;;;;;3.56;84.19;99063.16;2218379;80;21146;-73
2021/04/15 12:18:34;;;;;;;17.37;5.65;;;;;;;3.55;84.04;99059.72;2218413;80;21292;-74
2021/04/15 12:21:36;;;;;;;16.85;5.85;;;;;;;3.58;83.77;99057.49;2218767;80;21273;-73
2021/04/15 12:24:38;;;;;;;16.62;6.03;;;;;;;3.53;83.85;99064.54;2218395;80;21641;-73
2021/04/15 12:27:41;;;;;;;16.87;5.42;;;;;;;3.60;84.39;99064.77;2218444;80;21154;-73
2021/04/15 12:30:43;;;;;;;;;;;;;;;3.70;84.59;99062.30;2221284;80;21293;-73
2021/04/15 12:33:45;;;;;;;16.25;5.12;;;;;;;3.84;84.97;99063.66;2218401;80;20147;-73
2021/04/15 12:36:47;;;;;;;18.92;6.30;;;;;;;3.88;83.58;99058.76;2218398;80;21273;-73
2021/04/15 12:39:49;;;;;;;14.30;4.75;;;;;;;3.94;84.14;99062.48;2218520;80;21269;-73
2021/04/15 12:42:52;;;;;;;14.85;4.50;;;;;;;3.94;83.28;99056.00;2220159;80;21748;-73
2021/04/15 12:45:54;;;;;;;16.65;4.83;;;;;;;3.91;82.34;99062.13;2222394;80;21720;-73
2021/04/15 12:48:56;;;;;;;17.27;5.20;;;;;;;3.97;83.86;99056.74;2222524;80;21300;-73
2021/04/15 12:51:59;;;;;;;15.28;5.00;;;;;;;4.11;84.04;99058.92;2222663;80;21301;-73
2021/04/15 12:55:01;;;;;;;15.90;5.28;;;;;;;4.21;83.42;99057.33;2222511;80;21316;-73
2021/04/15 12:58:03;;;;;;;13.03;4.25;;;;;;;4.28;83.97;99056.23;2222480;80;21106;-73
2021/04/15 13:01:05;;;;;;;15.75;5.22;;;;;;;4.29;81.54;99056.64;2222877;80;21257;-73
2021/04/15 13:04:07;;;;;;;15.20;4.47;;;;;;;4.39;81.67;99054.15;2222495;80;21313;-73
2021/04/15 13:07:10;;;;;;;15.60;5.10;;;;;;;4.56;82.27;99057.51;2222302;80;21099;-73
2021/04/15 13:10:12;;;;;;;15.30;5.00;;;;;;;4.55;81.99;99049.77;2222505;80;21748;-73
2021/04/15 13:13:14;;;;;;;15.48;5.08;;;;;;;4.61;82.63;99044.36;2222977;80;21283;-73
2021/04/15 13:16:17;;;;;;;16.70;4.95;;;;;;;4.53;82.86;99051.12;2195781;80;21579;-73
2021/04/15 13:19:19;;;;;;;13.88;4.58;;;;;;;4.52;83.21;99048.11;2222507;80;21272;-73
2021/04/15 13:22:22;;;;;;;15.00;4.58;;;;;;;4.37;82.98;99050.77;2222620;80;21301;-73
2021/04/15 13:25:25;;;;;;;12.40;4.45;;;;;;;4.31;84.08;99050.94;2222457;80;21300;-73
2021/04/15 13:28:28;;;;;;;14.55;4.40;;;;;;;4.29;82.70;99048.86;2222330;80;21280;-73
2021/04/15 13:31:30;;;;;;;16.02;4.97;;;;;;;4.29;83.59;99047.09;2222733;80;21291;-73
2021/04/15 13:34:33;;;;;;;13.05;4.33;;;;;;;4.27;83.78;99046.31;2222335;80;21130;-73
2021/04/15 13:37:35;;;;;;;13.78;4.50;;;;;;;4.29;84.08;99043.66;2222440;80;21272;-73
2021/04/15 13:40:37;;;;;;;14.47;4.65;;;;;;;4.19;84.10;99047.45;2222506;80;21276;-74
2021/04/15 13:43:40;;;;;;;15.80;4.80;;;;;;;4.16;83.55;99042.73;2222560;80;21288;-73
2021/04/15 13:46:43;;;;;;;15.00;4.50;;;;;;;4.09;84.63;99049.02;2222338;80;21736;-73
2021/04/15 13:49:46;;;;;;;14.60;4.25;;;;;;;4.07;83.71;99046.09;2222333;80;21273;-73
2021/04/15 13:52:49;;;;;;;13.20;4.42;;;;;;;4.00;83.75;99042.83;2222828;80;21308;-73
2021/04/15 13:55:51;;;;;;;14.95;4.80;;;;;;;4.00;84.73;99050.61;2222294;80;21788;-73
2021/04/15 13:58:53;;;;;;;15.90;4.40;;;;;;;4.00;85.55;99040.23;2222434;80;21721;-73
2021/04/15 14:01:55;;;;;;;13.50;4.55;;;;;;;3.95;84.16;99047.30;2222446;80;21276;-73
2021/04/15 14:04:57;;;;;;;15.88;4.83;;;;;;;3.87;84.93;99039.75;2222434;80;21288;-73
2021/04/15 14:07:59;;;;;;;14.35;3.87;;;;;;;3.83;84.30;99050.28;2222407;80;21320;-73
2021/04/15 14:11:01;;;;;;;13.43;4.42;;;;;;;3.78;85.10;99053.02;2222443;80;21308;-73
2021/04/15 14:14:03;;;;;;;17.67;4.85;;;;;;;3.75;85.22;99047.47;2222408;80;21281;-73
2021/04/15 14:17:06;;;;;;;15.80;4.85;;;;;;;3.74;86.31;99044.92;2222552;80;21677;-73
2021/04/15 14:20:08;;;;;;;16.35;5.08;;;;;;;3.69;86.01;99036.41;2222315;80;21287;-73